sensor_id;sensor_type;location;lat;lon;timestamp;pressure;altitude;pressure_sealevel;temperature;humidity
50057;BME280;36875;49.468;11.200;2023-07-09T00:01:21;98310.00;;;23.01;43.48
50057;BME280;36875;49.468;11.200;2023-07-09T00:03:47;98315.50;;;23.01;43.27
50057;BME280;36875;49.468;11.200;2023-07-09T00:06:18;98321.78;;;23.02;43.41
50057;BME280;36875;49.468;11.200;2023-07-09T00:08:45;98325.66;;;23.01;43.45
50057;BME280;36875;49.468;11.200;2023-07-09T00:11:14;98316.94;;;22.99;43.21
50057;BME280;36875;49.468;11.200;2023-07-09T00:13:40;98319.34;;;23.00;43.36
50057;BME280;36875;49.468;11.200;2023-07-09T00:16:11;98322.41;;;22.99;43.28
50057;BME280;36875;49.468;11.200;2023-07-09T00:18:37;98325.97;;;22.99;43.39
50057;BME280;36875;49.468;11.200;2023-07-09T00:21:03;98322.41;;;22.99;43.43
50057;BME280;36875;49.468;11.200;2023-07-09T00:23:29;98322.72;;;22.97;43.24
50057;BME280;36875;49.468;11.200;2023-07-09T00:25:55;98329.06;;;22.98;43.23
50057;BME280;36875;49.468;11.200;2023-07-09T00:28:21;98326.31;;;22.98;43.23
50057;BME280;36875;49.468;11.200;2023-07-09T00:30:47;98325.47;;;22.97;43.17
50057;BME280;36875;49.468;11.200;2023-07-09T00:33:14;98321.94;;;22.97;43.26
50057;BME280;36875;49.468;11.200;2023-07-09T00:35:40;98327.44;;;22.97;43.25
50057;BME280;36875;49.468;11.200;2023-07-09T00:38:12;98318.38;;;22.96;43.01
50057;BME280;36875;49.468;11.200;2023-07-09T00:40:46;98325.81;;;22.96;43.25
50057;BME280;36875;49.468;11.200;2023-07-09T00:43:15;98322.56;;;22.94;43.08
50057;BME280;36875;49.468;11.200;2023-07-09T00:45:41;98322.25;;;22.95;43.20
50057;BME280;36875;49.468;11.200;2023-07-09T00:48:12;98322.25;;;22.95;43.09
50057;BME280;36875;49.468;11.200;2023-07-09T00:50:41;98329.69;;;22.95;43.18
50057;BME280;36875;49.468;11.200;2023-07-09T00:53:14;98330.47;;;22.95;42.96
50057;BME280;36875;49.468;11.200;2023-07-09T00:55:47;98328.56;;;22.96;43.17
50057;BME280;36875;49.468;11.200;2023-07-09T00:58:16;98331.63;;;22.94;42.97
50057;BME280;36875;49.468;11.200;2023-07-09T01:00:46;98325.31;;;22.94;43.07
50057;BME280;36875;49.468;11.200;2023-07-09T01:03:22;98331.63;;;22.94;43.09
50057;BME280;36875;49.468;11.200;2023-07-09T01:05:49;98337.13;;;22.94;43.13
50057;BME280;36875;49.468;11.200;2023-07-09T01:08:17;98333.53;;;22.94;43.26
50057;BME280;36875;49.468;11.200;2023-07-09T01:10:44;98326.47;;;22.93;43.17
50057;BME280;36875;49.468;11.200;2023-07-09T01:13:10;98330.81;;;22.94;43.25
50057;BME280;36875;49.468;11.200;2023-07-09T01:15:36;98330.81;;;22.94;43.08
50057;BME280;36875;49.468;11.200;2023-07-09T01:18:03;98318.06;;;22.89;43.03
50057;BME280;36875;49.468;11.200;2023-07-09T01:20:28;98329.19;;;22.93;43.12
50057;BME280;36875;49.468;11.200;2023-07-09T01:23:00;98331.94;;;22.93;43.20
50057;BME280;36875;49.468;11.200;2023-07-09T01:25:26;98323.72;;;22.93;43.13
50057;BME280;36875;49.468;11.200;2023-07-09T01:27:54;98331.94;;;22.93;43.17
50057;BME280;36875;49.468;11.200;2023-07-09T01:30:23;98333.06;;;22.91;43.20
50057;BME280;36875;49.468;11.200;2023-07-09T01:32:50;98324.81;;;22.91;43.01
50057;BME280;36875;49.468;11.200;2023-07-09T01:35:18;98333.06;;;22.91;43.16
50057;BME280;36875;49.468;11.200;2023-07-09T01:37:45;98338.56;;;22.91;43.08
50057;BME280;36875;49.468;11.200;2023-07-09T01:40:15;98333.06;;;22.91;43.19
50057;BME280;36875;49.468;11.200;2023-07-09T01:42:41;98332.25;;;22.91;43.20
50057;BME280;36875;49.468;11.200;2023-07-09T01:45:09;98335.81;;;22.91;43.15
50057;BME280;36875;49.468;11.200;2023-07-09T01:47:38;98335.81;;;22.91;43.17
50057;BME280;36875;49.468;11.200;2023-07-09T01:50:05;98338.06;;;22.89;43.25
50057;BME280;36875;49.468;11.200;2023-07-09T01:52:32;98339.69;;;22.90;43.39
50057;BME280;36875;49.468;11.200;2023-07-09T01:54:58;98322.88;;;22.83;43.18
50057;BME280;36875;49.468;11.200;2023-07-09T01:57:27;98320.16;;;22.83;43.09
50057;BME280;36875;49.468;11.200;2023-07-09T02:00:00;98332.56;;;22.89;43.29
50057;BME280;36875;49.468;11.200;2023-07-09T02:02:26;98329.84;;;22.89;43.40
50057;BME280;36875;49.468;11.200;2023-07-09T02:04:55;98334.53;;;22.89;43.17
50057;BME280;36875;49.468;11.200;2023-07-09T02:07:22;98337.25;;;22.89;43.51
50057;BME280;36875;49.468;11.200;2023-07-09T02:09:47;98344.69;;;22.88;43.57
50057;BME280;36875;49.468;11.200;2023-07-09T02:12:14;98339.22;;;22.88;43.07
50057;BME280;36875;49.468;11.200;2023-07-09T02:14:42;98349.34;;;22.88;43.40
50057;BME280;36875;49.468;11.200;2023-07-09T02:17:09;98355.69;;;22.88;43.42
50057;BME280;36875;49.468;11.200;2023-07-09T02:19:35;98349.34;;;22.88;43.50
50057;BME280;36875;49.468;11.200;2023-07-09T02:22:00;98352.09;;;22.88;43.36
50057;BME280;36875;49.468;11.200;2023-07-09T02:24:26;98345.81;;;22.87;43.51
50057;BME280;36875;49.468;11.200;2023-07-09T02:26:53;98342.28;;;22.87;43.49
50057;BME280;36875;49.468;11.200;2023-07-09T02:29:18;98337.59;;;22.87;43.48
50057;BME280;36875;49.468;11.200;2023-07-09T02:31:47;98347.75;;;22.87;43.35
50057;BME280;36875;49.468;11.200;2023-07-09T02:34:13;98345.00;;;22.87;43.63
50057;BME280;36875;49.468;11.200;2023-07-09T02:36:39;98343.38;;;22.86;43.57
50057;BME280;36875;49.468;11.200;2023-07-09T02:39:08;98345.31;;;22.85;43.56
50057;BME280;36875;49.468;11.200;2023-07-09T02:41:33;98342.59;;;22.85;43.48
50057;BME280;36875;49.468;11.200;2023-07-09T02:43:59;98346.94;;;22.86;43.51
50057;BME280;36875;49.468;11.200;2023-07-09T02:46:24;98348.06;;;22.85;43.53
50057;BME280;36875;49.468;11.200;2023-07-09T02:48:51;98342.59;;;22.85;43.68
50057;BME280;36875;49.468;11.200;2023-07-09T02:51:16;98344.53;;;22.85;43.58
50057;BME280;36875;49.468;11.200;2023-07-09T02:53:42;98341.78;;;22.85;43.40
50057;BME280;36875;49.468;11.200;2023-07-09T02:56:07;98344.53;;;22.85;43.59
50057;BME280;36875;49.468;11.200;2023-07-09T02:58:33;98351.94;;;22.84;43.52
50057;BME280;36875;49.468;11.200;2023-07-09T03:00:58;98357.41;;;22.84;43.66
50057;BME280;36875;49.468;11.200;2023-07-09T03:03:24;98353.06;;;22.83;43.70
50057;BME280;36875;49.468;11.200;2023-07-09T03:05:51;98350.34;;;22.83;43.48
50057;BME280;36875;49.468;11.200;2023-07-09T03:08:16;98349.00;;;22.81;43.74
50057;BME280;36875;49.468;11.200;2023-07-09T03:10:42;98357.75;;;22.83;43.82
50057;BME280;36875;49.468;11.200;2023-07-09T03:13:08;98366.78;;;22.83;43.68
50057;BME280;36875;49.468;11.200;2023-07-09T03:15:33;98356.94;;;22.82;43.84
50057;BME280;36875;49.468;11.200;2023-07-09T03:17:59;98361.31;;;22.83;43.63
50057;BME280;36875;49.468;11.200;2023-07-09T03:20:24;98367.91;;;22.82;43.91
50057;BME280;36875;49.468;11.200;2023-07-09T03:22:52;98367.91;;;22.82;43.56
50057;BME280;36875;49.468;11.200;2023-07-09T03:25:17;98361.94;;;22.80;43.93
50057;BME280;36875;49.468;11.200;2023-07-09T03:27:43;98367.91;;;22.82;43.55
50057;BME280;36875;49.468;11.200;2023-07-09T03:30:09;98369.06;;;22.81;43.43
50057;BME280;36875;49.468;11.200;2023-07-09T03:32:35;98370.97;;;22.81;43.78
50057;BME280;36875;49.468;11.200;2023-07-09T03:35:00;98369.84;;;22.82;43.80
50057;BME280;36875;49.468;11.200;2023-07-09T03:37:26;98368.22;;;22.81;43.85
50057;BME280;36875;49.468;11.200;2023-07-09T03:39:52;98368.22;;;22.81;43.75
50057;BME280;36875;49.468;11.200;2023-07-09T03:42:18;98374.53;;;22.81;43.83
50057;BME280;36875;49.468;11.200;2023-07-09T03:44:43;98375.66;;;22.80;43.66
50057;BME280;36875;49.468;11.200;2023-07-09T03:47:09;98374.84;;;22.80;43.93
50057;BME280;36875;49.468;11.200;2023-07-09T03:49:34;98377.28;;;22.81;43.74
50057;BME280;36875;49.468;11.200;2023-07-09T03:52:00;98370.16;;;22.80;43.88
50057;BME280;36875;49.468;11.200;2023-07-09T03:54:25;98369.38;;;22.80;43.93
50057;BME280;36875;49.468;11.200;2023-07-09T03:56:52;98374.84;;;22.80;43.73
50057;BME280;36875;49.468;11.200;2023-07-09T03:59:18;98375.97;;;22.79;43.95
50057;BME280;36875;49.468;11.200;2023-07-09T04:01:43;98374.06;;;22.79;43.88
50057;BME280;36875;49.468;11.200;2023-07-09T04:04:11;98371.31;;;22.79;43.70
50057;BME280;36875;49.468;11.200;2023-07-09T04:06:37;98375.66;;;22.80;43.56
50057;BME280;36875;49.468;11.200;2023-07-09T04:09:02;98369.38;;;22.80;43.75
50057;BME280;36875;49.468;11.200;2023-07-09T04:11:28;98382.28;;;22.79;43.86
50057;BME280;36875;49.468;11.200;2023-07-09T04:13:55;98374.06;;;22.79;43.71
50057;BME280;36875;49.468;11.200;2023-07-09T04:16:20;98378.72;;;22.79;43.71
50057;BME280;36875;49.468;11.200;2023-07-09T04:18:46;98388.56;;;22.80;43.75
50057;BME280;36875;49.468;11.200;2023-07-09T04:21:11;98379.53;;;22.79;43.63
50057;BME280;36875;49.468;11.200;2023-07-09T04:23:37;98374.22;;;22.83;43.67
50057;BME280;36875;49.468;11.200;2023-07-09T04:26:02;98380.03;;;22.81;43.84
50057;BME280;36875;49.468;11.200;2023-07-09T04:28:28;98389.88;;;22.82;43.83
50057;BME280;36875;49.468;11.200;2023-07-09T04:30:56;98387.13;;;22.82;43.63
50057;BME280;36875;49.468;11.200;2023-07-09T04:33:22;98386.31;;;22.82;43.72
50057;BME280;36875;49.468;11.200;2023-07-09T04:35:48;98391.00;;;22.81;43.69
50057;BME280;36875;49.468;11.200;2023-07-09T04:38:14;98388.25;;;22.81;43.48
50057;BME280;36875;49.468;11.200;2023-07-09T04:40:40;98389.38;;;22.80;43.78
50057;BME280;36875;49.468;11.200;2023-07-09T04:43:06;98387.94;;;22.83;43.62
50057;BME280;36875;49.468;11.200;2023-07-09T04:45:31;98384.38;;;22.82;43.77
50057;BME280;36875;49.468;11.200;2023-07-09T04:47:58;98387.94;;;22.83;43.59
50057;BME280;36875;49.468;11.200;2023-07-09T04:50:24;98385.50;;;22.81;43.57
50057;BME280;36875;49.468;11.200;2023-07-09T04:52:49;98391.00;;;22.81;43.74
50057;BME280;36875;49.468;11.200;2023-07-09T04:55:15;98393.75;;;22.81;43.49
50057;BME280;36875;49.468;11.200;2023-07-09T04:57:44;98393.44;;;22.83;43.75
50057;BME280;36875;49.468;11.200;2023-07-09T05:00:10;98390.69;;;22.83;43.72
50057;BME280;36875;49.468;11.200;2023-07-09T05:02:36;98400.22;;;22.85;43.66
50057;BME280;36875;49.468;11.200;2023-07-09T05:05:04;98394.09;;;22.88;43.64
50057;BME280;36875;49.468;11.200;2023-07-09T05:07:31;98400.88;;;22.91;43.61
50057;BME280;36875;49.468;11.200;2023-07-09T05:09:58;98393.91;;;22.94;43.43
50057;BME280;36875;49.468;11.200;2023-07-09T05:12:26;98401.84;;;22.95;43.47
50057;BME280;36875;49.468;11.200;2023-07-09T05:14:51;98405.41;;;22.96;43.38
50057;BME280;36875;49.468;11.200;2023-07-09T05:17:17;98397.66;;;22.98;43.55
50057;BME280;36875;49.468;11.200;2023-07-09T05:19:42;98403.16;;;22.98;43.42
50057;BME280;36875;49.468;11.200;2023-07-09T05:22:09;98405.91;;;22.98;43.50
50057;BME280;36875;49.468;11.200;2023-07-09T05:24:35;98400.41;;;22.98;43.50
50057;BME280;36875;49.468;11.200;2023-07-09T05:27:00;98402.50;;;23.01;43.50
50057;BME280;36875;49.468;11.200;2023-07-09T05:29:26;98401.91;;;23.04;43.43
50057;BME280;36875;49.468;11.200;2023-07-09T05:31:52;98389.47;;;23.06;43.43
50057;BME280;36875;49.468;11.200;2023-07-09T05:34:18;98401.44;;;23.11;43.47
50057;BME280;36875;49.468;11.200;2023-07-09T05:36:43;98398.03;;;23.14;43.45
50057;BME280;36875;49.468;11.200;2023-07-09T05:39:11;98399.34;;;23.16;43.28
50057;BME280;36875;49.468;11.200;2023-07-09T05:41:36;98395.47;;;23.17;43.36
50057;BME280;36875;49.468;11.200;2023-07-09T05:44:02;98401.44;;;23.19;43.33
50057;BME280;36875;49.468;11.200;2023-07-09T05:46:28;98401.91;;;23.21;43.32
50057;BME280;36875;49.468;11.200;2023-07-09T05:48:54;98402.44;;;23.23;42.99
50057;BME280;36875;49.468;11.200;2023-07-09T05:51:19;98404.84;;;23.25;42.99
50057;BME280;36875;49.468;11.200;2023-07-09T05:53:46;98398.22;;;23.26;43.03
50057;BME280;36875;49.468;11.200;2023-07-09T05:56:13;98406.16;;;23.27;42.99
50057;BME280;36875;49.468;11.200;2023-07-09T05:58:39;98403.09;;;23.29;42.86
50057;BME280;36875;49.468;11.200;2023-07-09T06:01:04;98402.78;;;23.31;42.85
50057;BME280;36875;49.468;11.200;2023-07-09T06:03:30;98407.13;;;23.32;42.94
50057;BME280;36875;49.468;11.200;2023-07-09T06:05:57;98397.75;;;23.33;42.79
50057;BME280;36875;49.468;11.200;2023-07-09T06:08:25;98401.00;;;23.35;42.82
50057;BME280;36875;49.468;11.200;2023-07-09T06:10:53;98401.00;;;23.35;43.22
50057;BME280;36875;49.468;11.200;2023-07-09T06:13:24;98401.47;;;23.37;42.89
50057;BME280;36875;49.468;11.200;2023-07-09T06:15:51;98401.16;;;23.38;42.72
50057;BME280;36875;49.468;11.200;2023-07-09T06:18:17;98405.19;;;23.41;42.87
50057;BME280;36875;49.468;11.200;2023-07-09T06:20:46;98400.84;;;23.40;42.88
50057;BME280;36875;49.468;11.200;2023-07-09T06:23:12;98413.09;;;23.42;43.10
50057;BME280;36875;49.468;11.200;2023-07-09T06:25:38;98405.66;;;23.43;42.93
50057;BME280;36875;49.468;11.200;2023-07-09T06:28:04;98408.41;;;23.43;42.89
50057;BME280;36875;49.468;11.200;2023-07-09T06:30:30;98410.03;;;23.44;42.90
50057;BME280;36875;49.468;11.200;2023-07-09T06:32:56;98408.91;;;23.45;42.72
50057;BME280;36875;49.468;11.200;2023-07-09T06:35:21;98407.78;;;23.46;42.87
50057;BME280;36875;49.468;11.200;2023-07-09T06:37:47;98414.88;;;23.47;42.97
50057;BME280;36875;49.468;11.200;2023-07-09T06:40:12;98413.75;;;23.48;42.95
50057;BME280;36875;49.468;11.200;2023-07-09T06:42:38;98410.69;;;23.50;42.81
50057;BME280;36875;49.468;11.200;2023-07-09T06:45:04;98415.03;;;23.51;42.81
50057;BME280;36875;49.468;11.200;2023-07-09T06:47:31;98410.38;;;23.51;42.63
50057;BME280;36875;49.468;11.200;2023-07-09T06:49:57;98419.09;;;23.53;42.97
50057;BME280;36875;49.468;11.200;2023-07-09T06:52:22;98420.38;;;23.56;43.30
50057;BME280;36875;49.468;11.200;2023-07-09T06:54:48;98422.34;;;23.55;43.34
50057;BME280;36875;49.468;11.200;2023-07-09T06:57:14;98417.63;;;23.56;43.19
50057;BME280;36875;49.468;11.200;2023-07-09T06:59:40;98428.63;;;23.56;43.21
50057;BME280;36875;49.468;11.200;2023-07-09T07:02:05;98421.50;;;23.46;43.66
50057;BME280;36875;49.468;11.200;2023-07-09T07:04:32;98425.56;;;23.40;43.52
50057;BME280;36875;49.468;11.200;2023-07-09T07:06:58;98420.69;;;23.37;43.43
50057;BME280;36875;49.468;11.200;2023-07-09T07:09:23;98414.72;;;23.35;43.60
50057;BME280;36875;49.468;11.200;2023-07-09T07:11:49;98419.72;;;23.33;43.62
50057;BME280;36875;49.468;11.200;2023-07-09T07:14:15;98420.84;;;23.32;43.68
50057;BME280;36875;49.468;11.200;2023-07-09T07:16:40;98423.59;;;23.32;43.65
50057;BME280;36875;49.468;11.200;2023-07-09T07:19:06;98415.69;;;23.30;43.74
50057;BME280;36875;49.468;11.200;2023-07-09T07:21:33;98413.25;;;23.28;43.93
50057;BME280;36875;49.468;11.200;2023-07-09T07:23:58;98417.63;;;23.29;43.91
50057;BME280;36875;49.468;11.200;2023-07-09T07:26:24;98420.03;;;23.31;44.25
50057;BME280;36875;49.468;11.200;2023-07-09T07:28:49;98419.25;;;23.31;44.07
50057;BME280;36875;49.468;11.200;2023-07-09T07:31:16;98416.50;;;23.31;44.23
50057;BME280;36875;49.468;11.200;2023-07-09T07:33:42;98414.88;;;23.29;44.44
50057;BME280;36875;49.468;11.200;2023-07-09T07:36:08;98412.59;;;23.32;44.19
50057;BME280;36875;49.468;11.200;2023-07-09T07:38:35;98411.00;;;23.31;44.52
50057;BME280;36875;49.468;11.200;2023-07-09T07:41:01;98412.44;;;23.28;44.57
50057;BME280;36875;49.468;11.200;2023-07-09T07:43:27;98419.25;;;23.31;44.45
50057;BME280;36875;49.468;11.200;2023-07-09T07:45:53;98413.41;;;23.32;44.80
50057;BME280;36875;49.468;11.200;2023-07-09T07:48:18;98409.53;;;23.33;44.84
50057;BME280;36875;49.468;11.200;2023-07-09T07:50:45;98404.38;;;23.32;45.23
50057;BME280;36875;49.468;11.200;2023-07-09T07:53:11;98411.16;;;23.34;44.82
50057;BME280;36875;49.468;11.200;2023-07-09T07:55:38;98409.53;;;23.33;44.81
50057;BME280;36875;49.468;11.200;2023-07-09T07:58:03;98406.81;;;23.33;44.65
50057;BME280;36875;49.468;11.200;2023-07-09T08:00:29;98405.16;;;23.32;44.61
50057;BME280;36875;49.468;11.200;2023-07-09T08:02:55;98395.97;;;23.28;44.71
50057;BME280;36875;49.468;11.200;2023-07-09T08:05:20;98406.31;;;23.31;44.51
50057;BME280;36875;49.468;11.200;2023-07-09T08:07:46;98403.88;;;23.29;44.64
50057;BME280;36875;49.468;11.200;2023-07-09T08:10:12;98401.47;;;23.28;44.35
50057;BME280;36875;49.468;11.200;2023-07-09T08:12:39;98382.22;;;23.19;44.52
50057;BME280;36875;49.468;11.200;2023-07-09T08:15:06;98401.63;;;23.32;44.91
50057;BME280;36875;49.468;11.200;2023-07-09T08:17:32;98396.13;;;23.32;44.78
50057;BME280;36875;49.468;11.200;2023-07-09T08:19:57;98394.53;;;23.31;44.81
50057;BME280;36875;49.468;11.200;2023-07-09T08:22:23;98394.53;;;23.31;44.76
50057;BME280;36875;49.468;11.200;2023-07-09T08:24:48;98395.34;;;23.31;44.46
50057;BME280;36875;49.468;11.200;2023-07-09T08:27:14;98394.53;;;23.31;44.76
50057;BME280;36875;49.468;11.200;2023-07-09T08:29:41;98393.38;;;23.32;44.66
50057;BME280;36875;49.468;11.200;2023-07-09T08:32:08;98392.28;;;23.33;44.75
50057;BME280;36875;49.468;11.200;2023-07-09T08:34:34;98396.13;;;23.32;44.55
50057;BME280;36875;49.468;11.200;2023-07-09T08:37:00;98386.78;;;23.33;45.15
50057;BME280;36875;49.468;11.200;2023-07-09T08:39:26;98385.63;;;23.34;45.20
50057;BME280;36875;49.468;11.200;2023-07-09T08:41:54;98380.47;;;23.32;44.84
50057;BME280;36875;49.468;11.200;2023-07-09T08:44:41;98383.69;;;23.34;45.09
50057;BME280;36875;49.468;11.200;2023-07-09T08:47:17;98384.50;;;23.35;45.18
50057;BME280;36875;49.468;11.200;2023-07-09T08:49:49;98379.03;;;23.35;45.24
50057;BME280;36875;49.468;11.200;2023-07-09T08:52:21;98384.19;;;23.36;45.32
50057;BME280;36875;49.468;11.200;2023-07-09T08:54:50;98384.50;;;23.35;45.26
50057;BME280;36875;49.468;11.200;2023-07-09T08:57:21;98382.25;;;23.37;45.49
50057;BME280;36875;49.468;11.200;2023-07-09T08:59:49;98385.47;;;23.39;45.28
50057;BME280;36875;49.468;11.200;2023-07-09T09:02:26;98384.69;;;23.38;45.66
50057;BME280;36875;49.468;11.200;2023-07-09T09:04:54;98374.66;;;23.42;46.22
50057;BME280;36875;49.468;11.200;2023-07-09T09:07:28;98386.59;;;23.46;46.03
50057;BME280;36875;49.468;11.200;2023-07-09T09:10:02;98376.09;;;23.48;45.97
50057;BME280;36875;49.468;11.200;2023-07-09T09:12:30;98386.59;;;23.46;45.86
50057;BME280;36875;49.468;11.200;2023-07-09T09:15:02;98392.09;;;23.46;45.80
50057;BME280;36875;49.468;11.200;2023-07-09T09:17:32;98385.81;;;23.46;45.92
50057;BME280;36875;49.468;11.200;2023-07-09T09:20:02;98384.19;;;23.45;46.14
50057;BME280;36875;49.468;11.200;2023-07-09T09:22:31;98382.25;;;23.45;45.75
50057;BME280;36875;49.468;11.200;2023-07-09T09:25:01;98373.19;;;23.45;46.14
50057;BME280;36875;49.468;11.200;2023-07-09T09:27:28;98388.56;;;23.46;45.78
50057;BME280;36875;49.468;11.200;2023-07-09T09:29:54;98383.06;;;23.46;45.79
50057;BME280;36875;49.468;11.200;2023-07-09T09:32:23;98378.69;;;23.45;45.68
50057;BME280;36875;49.468;11.200;2023-07-09T09:34:52;98380.31;;;23.46;45.60
50057;BME280;36875;49.468;11.200;2023-07-09T09:37:26;98371.28;;;23.45;45.72
50057;BME280;36875;49.468;11.200;2023-07-09T09:39:53;98373.19;;;23.45;45.45
50057;BME280;36875;49.468;11.200;2023-07-09T09:42:18;98371.59;;;23.44;45.85
50057;BME280;36875;49.468;11.200;2023-07-09T09:44:45;98378.69;;;23.45;45.51
50057;BME280;36875;49.468;11.200;2023-07-09T09:47:11;98376.78;;;23.45;45.51
50057;BME280;36875;49.468;11.200;2023-07-09T09:49:40;98380.00;;;23.47;46.07
50057;BME280;36875;49.468;11.200;2023-07-09T09:52:11;98388.41;;;23.51;45.93
50057;BME280;36875;49.468;11.200;2023-07-09T09:54:40;98378.22;;;23.52;45.72
50057;BME280;36875;49.468;11.200;2023-07-09T09:57:15;98383.88;;;23.55;46.05
50057;BME280;36875;49.468;11.200;2023-07-09T09:59:42;98380.81;;;23.57;45.75
50057;BME280;36875;49.468;11.200;2023-07-09T10:02:15;98379.97;;;23.56;46.21
50057;BME280;36875;49.468;11.200;2023-07-09T10:04:42;98378.84;;;23.57;45.93
50057;BME280;36875;49.468;11.200;2023-07-09T10:07:19;98373.69;;;23.56;45.90
50057;BME280;36875;49.468;11.200;2023-07-09T10:09:47;98377.56;;;23.55;45.88
50057;BME280;36875;49.468;11.200;2023-07-09T10:12:18;98375.63;;;23.55;45.85
50057;BME280;36875;49.468;11.200;2023-07-09T10:14:54;98376.91;;;23.58;45.85
50057;BME280;36875;49.468;11.200;2023-07-09T10:17:35;98368.97;;;23.56;45.78
50057;BME280;36875;49.468;11.200;2023-07-09T10:20:07;98366.75;;;23.58;45.80
50057;BME280;36875;49.468;11.200;2023-07-09T10:22:40;98364.00;;;23.58;46.02
50057;BME280;36875;49.468;11.200;2023-07-09T10:25:16;98357.03;;;23.61;45.59
50057;BME280;36875;49.468;11.200;2023-07-09T10:27:57;98366.09;;;23.61;45.65
50057;BME280;36875;49.468;11.200;2023-07-09T10:30:41;98354.59;;;23.59;45.44
50057;BME280;36875;49.468;11.200;2023-07-09T10:33:11;98356.72;;;23.62;45.81
50057;BME280;36875;49.468;11.200;2023-07-09T10:35:41;98358.31;;;23.63;46.04
50057;BME280;36875;49.468;11.200;2023-07-09T10:38:29;98356.41;;;23.64;46.04
50057;BME280;36875;49.468;11.200;2023-07-09T10:40:59;98359.94;;;23.64;46.03
50057;BME280;36875;49.468;11.200;2023-07-09T10:43:33;98356.09;;;23.65;45.73
50057;BME280;36875;49.468;11.200;2023-07-09T10:46:04;98357.19;;;23.64;46.00
50057;BME280;36875;49.468;11.200;2023-07-09T10:48:36;98348.97;;;23.64;46.10
50057;BME280;36875;49.468;11.200;2023-07-09T10:51:03;98355.25;;;23.65;45.58
50057;BME280;36875;49.468;11.200;2023-07-09T10:53:36;98347.31;;;23.63;45.83
50057;BME280;36875;49.468;11.200;2023-07-09T10:56:08;98341.84;;;23.63;46.16
50057;BME280;36875;49.468;11.200;2023-07-09T10:58:40;98347.00;;;23.65;45.85
50057;BME280;36875;49.468;11.200;2023-07-09T11:01:11;98348.16;;;23.64;46.39
50057;BME280;36875;49.468;11.200;2023-07-09T11:03:41;98340.72;;;23.64;46.09
50057;BME280;36875;49.468;11.200;2023-07-09T11:06:19;98339.09;;;23.63;46.17
50057;BME280;36875;49.468;11.200;2023-07-09T11:08:49;98334.09;;;23.65;46.21
50057;BME280;36875;49.468;11.200;2023-07-09T11:11:25;98338.75;;;23.65;46.17
50057;BME280;36875;49.468;11.200;2023-07-09T11:13:56;98336.84;;;23.65;46.27
50057;BME280;36875;49.468;11.200;2023-07-09T11:16:27;98342.34;;;23.65;46.41
50057;BME280;36875;49.468;11.200;2023-07-09T11:18:55;98337.97;;;23.64;46.22
50057;BME280;36875;49.468;11.200;2023-07-09T11:21:22;98334.56;;;23.67;46.50
50057;BME280;36875;49.468;11.200;2023-07-09T11:23:51;98335.06;;;23.70;46.22
50057;BME280;36875;49.468;11.200;2023-07-09T11:26:23;98329.56;;;23.70;46.26
50057;BME280;36875;49.468;11.200;2023-07-09T11:28:52;98330.34;;;23.70;46.44
50057;BME280;36875;49.468;11.200;2023-07-09T11:31:22;98326.50;;;23.71;46.14
50057;BME280;36875;49.468;11.200;2023-07-09T11:33:59;98326.50;;;23.71;46.08
50057;BME280;36875;49.468;11.200;2023-07-09T11:36:27;98321.00;;;23.71;46.47
50057;BME280;36875;49.468;11.200;2023-07-09T11:38:54;98322.59;;;23.72;46.46
50057;BME280;36875;49.468;11.200;2023-07-09T11:41:33;98317.91;;;23.73;46.02
50057;BME280;36875;49.468;11.200;2023-07-09T11:44:09;98315.16;;;23.73;46.42
50057;BME280;36875;49.468;11.200;2023-07-09T11:46:36;98317.91;;;23.73;46.38
50057;BME280;36875;49.468;11.200;2023-07-09T11:49:08;98319.53;;;23.74;46.45
50057;BME280;36875;49.468;11.200;2023-07-09T11:51:40;98307.41;;;23.75;46.31
50057;BME280;36875;49.468;11.200;2023-07-09T11:54:11;98303.84;;;23.74;46.05
50057;BME280;36875;49.468;11.200;2023-07-09T11:56:38;98303.69;;;23.71;46.22
50057;BME280;36875;49.468;11.200;2023-07-09T11:59:04;98305.31;;;23.72;46.05
50057;BME280;36875;49.468;11.200;2023-07-09T12:01:43;98304.50;;;23.71;46.24
50057;BME280;36875;49.468;11.200;2023-07-09T12:04:13;98297.38;;;23.70;46.04
50057;BME280;36875;49.468;11.200;2023-07-09T12:06:40;98300.94;;;23.71;46.01
50057;BME280;36875;49.468;11.200;2023-07-09T12:09:05;98306.09;;;23.72;46.05
50057;BME280;36875;49.468;11.200;2023-07-09T12:11:34;98299.81;;;23.72;46.15
50057;BME280;36875;49.468;11.200;2023-07-09T12:14:05;98297.06;;;23.72;46.02
50057;BME280;36875;49.468;11.200;2023-07-09T12:16:35;98288.03;;;23.71;46.36
50057;BME280;36875;49.468;11.200;2023-07-09T12:19:01;98291.56;;;23.72;46.25
50057;BME280;36875;49.468;11.200;2023-07-09T12:21:26;98284.44;;;23.71;46.24
50057;BME280;36875;49.468;11.200;2023-07-09T12:23:52;98272.66;;;23.70;46.24
50057;BME280;36875;49.468;11.200;2023-07-09T12:26:19;98276.19;;;23.71;46.19
50057;BME280;36875;49.468;11.200;2023-07-09T12:28:51;98272.66;;;23.70;45.88
50057;BME280;36875;49.468;11.200;2023-07-09T12:31:17;98272.34;;;23.72;46.50
50057;BME280;36875;49.468;11.200;2023-07-09T12:33:47;98275.56;;;23.74;46.05
50057;BME280;36875;49.468;11.200;2023-07-09T12:36:14;98268.94;;;23.75;46.04
50057;BME280;36875;49.468;11.200;2023-07-09T12:38:42;98260.69;;;23.75;45.84
50057;BME280;36875;49.468;11.200;2023-07-09T12:41:17;98261.81;;;23.74;45.96
50057;BME280;36875;49.468;11.200;2023-07-09T12:43:44;98259.88;;;23.74;46.33
50057;BME280;36875;49.468;11.200;2023-07-09T12:46:11;98249.72;;;23.75;46.33
50057;BME280;36875;49.468;11.200;2023-07-09T12:48:37;98245.00;;;23.75;46.57
50057;BME280;36875;49.468;11.200;2023-07-09T12:51:07;98252.75;;;23.82;46.30
50057;BME280;36875;49.468;11.200;2023-07-09T12:53:33;98248.41;;;23.81;46.58